createdAt,value
2018-12-27T00:00:25.033Z,102402.34
2018-12-27T00:02:54.900Z,102398.39
2018-12-27T00:05:18.902Z,102404.06
2018-12-27T00:07:44.926Z,102410.64
2018-12-27T00:10:10.929Z,102403.45
2018-12-27T00:12:36.931Z,102398.58
2018-12-27T00:15:03.032Z,102396.51
2018-12-27T00:17:29.027Z,102396.88
2018-12-27T00:19:55.051Z,102392.92
2018-12-27T00:22:21.063Z,102399.63
2018-12-27T00:24:47.078Z,102398.39
2018-12-27T00:27:13.094Z,102390.48
2018-12-27T00:29:39.097Z,102383.90
2018-12-27T00:32:05.119Z,102393.21
2018-12-27T00:34:31.123Z,102382.30
2018-12-27T00:36:57.154Z,102389.37
2018-12-27T00:39:23.157Z,102386.83
2018-12-27T00:41:49.167Z,102396.45
2018-12-27T00:44:15.173Z,102393.53
2018-12-27T00:46:41.291Z,102392.66
2018-12-27T00:49:07.303Z,102389.30
2018-12-27T00:51:33.324Z,102390.98
2018-12-27T00:53:59.415Z,102388.83
2018-12-27T00:56:25.445Z,102379.48
2018-12-27T00:58:51.453Z,102382.52
2018-12-27T01:01:17.450Z,102371.41
2018-12-27T01:03:43.482Z,102373.08
2018-12-27T01:06:09.502Z,102370.45
2018-12-27T01:08:35.524Z,102366.22
2018-12-27T01:11:01.591Z,102377.23
2018-12-27T01:13:27.565Z,102367.27
2018-12-27T01:15:53.570Z,102366.78
2018-12-27T01:18:19.580Z,102363.40
2018-12-27T01:20:45.608Z,102355.61
2018-12-27T01:23:11.644Z,102359.84
2018-12-27T01:25:37.663Z,102363.88
2018-12-27T01:28:03.850Z,102362.67
2018-12-27T01:30:29.902Z,102372.27
2018-12-27T01:32:56.184Z,102371.30
2018-12-27T01:35:22.188Z,102371.51
2018-12-27T01:37:48.222Z,102376.78
2018-12-27T01:40:14.871Z,102375.46
2018-12-27T01:42:40.886Z,102369.63
2018-12-27T01:45:06.895Z,102352.02
2018-12-27T01:47:32.895Z,102358.87
2018-12-27T01:49:58.978Z,102359.84
2018-12-27T01:52:25.087Z,102363.23
2018-12-27T01:54:51.106Z,102352.77
2018-12-27T01:57:17.098Z,102349.30
2018-12-27T01:59:43.287Z,102347.50
2018-12-27T02:02:09.310Z,102342.80
2018-12-27T02:04:35.315Z,102345.16
2018-12-27T02:07:01.617Z,102345.06
2018-12-27T02:09:27.610Z,102335.94
2018-12-27T02:11:53.643Z,102331.50
2018-12-27T02:14:19.654Z,102326.35
2018-12-27T02:16:45.691Z,102328.59
2018-12-27T02:19:11.698Z,102322.75
2018-12-27T02:21:37.712Z,102323.59
2018-12-27T02:24:03.713Z,102324.91
2018-12-27T02:26:30.149Z,102323.98
2018-12-27T02:28:56.186Z,102312.61
2018-12-27T02:31:22.210Z,102321.14
2018-12-27T02:33:48.217Z,102319.34
2018-12-27T02:36:14.479Z,102317.55
2018-12-27T02:38:40.526Z,102319.73
2018-12-27T02:41:06.546Z,102312.76
2018-12-27T02:43:32.551Z,102318.03
2018-12-27T02:45:58.596Z,102316.23
2018-12-27T02:48:24.707Z,102313.15
2018-12-27T02:50:50.734Z,102308.32
2018-12-27T02:53:16.751Z,102312.76
2018-12-27T02:55:42.761Z,102308.80
2018-12-27T02:58:08.776Z,102307.13
2018-12-27T03:00:34.822Z,102297.91
2018-12-27T03:03:00.846Z,102303.17
2018-12-27T03:05:26.850Z,102303.17
2018-12-27T03:07:52.874Z,102302.70
2018-12-27T03:10:18.881Z,102300.54
2018-12-27T03:12:45.026Z,102301.47
2018-12-27T03:15:11.024Z,102299.70
2018-12-27T03:17:37.026Z,102295.27
2018-12-27T03:20:03.044Z,102300.89
2018-12-27T03:22:29.059Z,102291.19
2018-12-27T03:24:55.075Z,102284.03
2018-12-27T03:27:21.092Z,102283.55
2018-12-27T03:29:47.162Z,102279.99
2018-12-27T03:32:13.228Z,102283.55
2018-12-27T03:34:39.255Z,102281.31
2018-12-27T03:37:05.281Z,102276.04
2018-12-27T03:39:31.298Z,102271.25
2018-12-27T03:41:57.326Z,102275.20
2018-12-27T03:44:23.333Z,102263.34
2018-12-27T03:46:49.729Z,102262.38
2018-12-27T03:49:16.072Z,102254.95
2018-12-27T03:51:42.092Z,102253.64
2018-12-27T03:54:08.182Z,102247.88
2018-12-27T03:56:34.332Z,102244.41
2018-12-27T03:59:00.497Z,102245.25
2018-12-27T04:01:26.514Z,102244.29
2018-12-27T04:04:01.038Z,102247.31
2018-12-27T04:06:20.258Z,102237.61
2018-12-27T04:08:46.280Z,102238.92
2018-12-27T04:11:12.351Z,102238.36
2018-12-27T04:13:38.374Z,102240.52
2018-12-27T04:16:04.413Z,102238.36
2018-12-27T04:18:30.566Z,102243.15
2018-12-27T04:20:56.615Z,102236.08
2018-12-27T04:23:22.645Z,102237.39
2018-12-27T04:25:48.648Z,102235.62
2018-12-27T04:28:14.650Z,102232.12
2018-12-27T04:30:40.678Z,102230.80
2018-12-27T04:33:06.787Z,102233.44
2018-12-27T04:35:32.793Z,102233.44
2018-12-27T04:37:58.794Z,102234.67
2018-12-27T04:40:24.804Z,102232.61
2018-12-27T04:42:51.110Z,102226.02
2018-12-27T04:45:17.166Z,102232.52
2018-12-27T04:47:43.272Z,102235.62
2018-12-27T04:50:09.277Z,102233.35
2018-12-27T04:52:35.302Z,102232.88
2018-12-27T04:55:01.307Z,102226.67
2018-12-27T04:57:27.299Z,102224.75
2018-12-27T04:59:53.338Z,102223.91
2018-12-27T05:02:19.599Z,102222.50
2018-12-27T05:04:45.635Z,102220.80
2018-12-27T05:07:11.643Z,102227.50
2018-12-27T05:09:37.653Z,102224.75
2018-12-27T05:12:03.652Z,102222.98
2018-12-27T05:14:29.663Z,102224.17
2018-12-27T05:16:55.699Z,102215.52
2018-12-27T05:19:21.723Z,102223.81
2018-12-27T05:21:47.718Z,102222.86
2018-12-27T05:24:13.727Z,102214.59
2018-12-27T05:26:39.757Z,102213.27
2018-12-27T05:29:05.768Z,102212.88
2018-12-27T05:31:31.818Z,102204.97
2018-12-27T05:33:57.834Z,102206.30
2018-12-27T05:36:23.878Z,102213.27
2018-12-27T05:38:49.881Z,102210.16
2018-12-27T05:41:15.882Z,102209.67
2018-12-27T05:43:41.916Z,102216.27
2018-12-27T05:46:07.933Z,102224.08
2018-12-27T05:48:33.937Z,102223.60
2018-12-27T05:50:59.951Z,102215.69
2018-12-27T05:53:25.982Z,102218.33
2018-12-27T05:55:51.984Z,102227.56
2018-12-27T05:58:18.047Z,102230.20
2018-12-27T06:00:44.075Z,102226.81
2018-12-27T06:03:10.074Z,102228.12
2018-12-27T06:05:36.087Z,102240.73
2018-12-27T06:08:02.130Z,102236.30
2018-12-27T06:10:28.167Z,102233.31
2018-12-27T06:12:54.158Z,102235.11
2018-12-27T06:15:20.196Z,102238.22
2018-12-27T06:17:46.185Z,102232.95
2018-12-27T06:20:12.213Z,102237.36
2018-12-27T06:22:38.583Z,102239.99
2018-12-27T06:25:04.612Z,102238.22
2018-12-27T06:27:30.631Z,102239.99
2018-12-27T06:29:56.631Z,102239.06
2018-12-27T06:32:22.674Z,102230.67
2018-12-27T06:34:48.890Z,102231.99
2018-12-27T06:37:14.902Z,102230.67
2018-12-27T06:39:40.898Z,102234.14
2018-12-27T06:42:06.991Z,102229.36
2018-12-27T06:44:33.029Z,102230.20
2018-12-27T06:46:59.031Z,102224.92
2018-12-27T06:49:25.140Z,102227.95
2018-12-27T06:51:51.186Z,102228.88
2018-12-27T06:54:17.182Z,102226.23
2018-12-27T06:56:43.210Z,102232.83
2018-12-27T06:59:09.582Z,102236.78
2018-12-27T07:01:35.627Z,102232.83
2018-12-27T07:04:01.718Z,102231.42
2018-12-27T07:06:27.738Z,102237.17
2018-12-27T07:08:53.803Z,102230.58
2018-12-27T07:11:19.823Z,102234.14
2018-12-27T07:13:45.862Z,102235.95
2018-12-27T07:16:11.944Z,102232.83
2018-12-27T07:18:37.952Z,102233.66
2018-12-27T07:21:04.018Z,102231.99
2018-12-27T07:23:30.083Z,102228.88
2018-12-27T07:25:56.251Z,102239.33
2018-12-27T07:28:22.271Z,102239.59
2018-12-27T07:30:48.282Z,102232.73
2018-12-27T07:33:14.315Z,102241.00
2018-12-27T07:35:40.522Z,102242.80
2018-12-27T07:38:06.532Z,102241.58
2018-12-27T07:40:32.534Z,102238.09
2018-12-27T07:42:58.545Z,102240.73
2018-12-27T07:45:24.633Z,102239.42
2018-12-27T07:47:50.675Z,102243.37
2018-12-27T07:50:16.760Z,102244.34
2018-12-27T07:52:42.821Z,102238.58
2018-12-27T07:55:08.967Z,102237.75
2018-12-27T07:57:35.347Z,102238.09
2018-12-27T08:00:01.452Z,102240.73
2018-12-27T08:02:27.577Z,102237.27
2018-12-27T08:04:53.683Z,102241.22
2018-12-27T08:07:19.710Z,102239.81
2018-12-27T08:09:45.718Z,102243.28
2018-12-27T08:12:11.727Z,102238.84
2018-12-27T08:14:38.053Z,102235.86
2018-12-27T08:17:04.163Z,102242.32
2018-12-27T08:19:30.187Z,102233.58
2018-12-27T08:21:56.552Z,102230.84
2018-12-27T08:24:22.583Z,102229.41
2018-12-27T08:26:48.791Z,102231.47
2018-12-27T08:29:14.806Z,102227.42
2018-12-27T08:31:40.807Z,102225.05
2018-12-27T08:34:06.883Z,102233.31
2018-12-27T08:36:32.947Z,102227.95
2018-12-27T08:38:58.956Z,102229.14
2018-12-27T08:41:24.954Z,102226.06
2018-12-27T08:43:51.071Z,102229.41
2018-12-27T08:46:17.130Z,102236.39
2018-12-27T08:48:43.142Z,102234.59
2018-12-27T08:51:09.147Z,102237.31
2018-12-27T08:53:35.183Z,102237.44
2018-12-27T08:56:01.220Z,102231.59
2018-12-27T08:58:27.297Z,102235.64
2018-12-27T09:00:53.315Z,102229.53
2018-12-27T09:03:19.424Z,102228.09
2018-12-27T09:05:45.806Z,102222.09
2018-12-27T09:08:11.817Z,102218.98
2018-12-27T09:10:37.871Z,102221.50
2018-12-27T09:13:03.869Z,102214.06
2018-12-27T09:15:29.953Z,102213.71
2018-12-27T09:17:55.987Z,102209.36
2018-12-27T09:20:22.022Z,102207.34
2018-12-27T09:22:48.299Z,102209.48
2018-12-27T09:25:14.326Z,102206.47
2018-12-27T09:27:40.357Z,102204.80
2018-12-27T09:30:06.400Z,102206.59
2018-12-27T09:32:32.482Z,102204.89
2018-12-27T09:34:58.507Z,102207.16
2018-12-27T09:37:24.525Z,102203.30
2018-12-27T09:39:50.534Z,102203.30
2018-12-27T09:42:16.598Z,102198.42
2018-12-27T09:44:42.613Z,102205.27
2018-12-27T09:47:08.699Z,102201.31
2018-12-27T09:49:34.691Z,102206.11
2018-12-27T09:52:02.139Z,102204.31
2018-12-27T09:54:28.510Z,102206.85
2018-12-27T09:56:54.518Z,102205.63
2018-12-27T09:59:20.758Z,102205.15
2018-12-27T10:01:46.864Z,102210.55
2018-12-27T10:04:12.922Z,102208.75
2018-12-27T10:06:39.599Z,102206.11
2018-12-27T10:09:05.683Z,102193.41
2018-12-27T10:11:31.806Z,102191.70
2018-12-27T10:13:57.855Z,102195.66
2018-12-27T10:16:23.879Z,102189.55
2018-12-27T10:18:49.967Z,102184.37
2018-12-27T10:21:16.227Z,102176.94
2018-12-27T10:23:42.244Z,102180.80
2018-12-27T10:26:08.279Z,102182.12
2018-12-27T10:28:34.271Z,102174.20
2018-12-27T10:31:00.303Z,102174.95
2018-12-27T10:33:26.383Z,102169.20
2018-12-27T10:35:52.418Z,102160.80
2018-12-27T10:38:18.449Z,102153.38
2018-12-27T10:40:44.775Z,102150.73
2018-12-27T10:43:10.789Z,102150.64
2018-12-27T10:45:36.842Z,102147.53
2018-12-27T10:48:02.880Z,102144.41
2018-12-27T10:50:29.075Z,102143.83
2018-12-27T10:52:55.115Z,102135.44
2018-12-27T10:55:21.159Z,102134.02
2018-12-27T10:57:47.296Z,102124.57
2018-12-27T11:00:13.448Z,102124.92
2018-12-27T11:02:39.451Z,102129.63
2018-12-27T11:05:05.496Z,102125.09
2018-12-27T11:07:31.514Z,102127.63
2018-12-27T11:09:57.535Z,102123.06
2018-12-27T11:12:23.535Z,102122.61
2018-12-27T11:14:49.742Z,102117.95
2018-12-27T11:17:15.764Z,102116.05
2018-12-27T11:19:41.871Z,102116.31
2018-12-27T11:22:07.934Z,102105.53
2018-12-27T11:24:34.055Z,102105.05
2018-12-27T11:27:00.054Z,102104.02
2018-12-27T11:29:26.087Z,102105.20
2018-12-27T11:31:52.101Z,102101.19
2018-12-27T11:34:18.159Z,102094.59
2018-12-27T11:36:44.171Z,102094.94
2018-12-27T11:39:10.191Z,102090.63
2018-12-27T11:41:36.191Z,102084.03
2018-12-27T11:44:02.203Z,102079.11
2018-12-27T11:46:28.519Z,102075.28
2018-12-27T11:48:54.959Z,102068.94
2018-12-27T11:51:21.009Z,102060.06
2018-12-27T11:53:47.089Z,102058.16
2018-12-27T11:56:13.131Z,102058.51
2018-12-27T11:58:39.265Z,102054.55
2018-12-27T12:01:05.312Z,102047.95
2018-12-27T12:03:31.411Z,102047.22
2018-12-27T12:06:03.200Z,102049.27
2018-12-27T12:08:25.165Z,102050.59
2018-12-27T12:10:51.387Z,102054.94
2018-12-27T12:13:17.597Z,102053.48
2018-12-27T12:15:43.706Z,102050.75
2018-12-27T12:18:09.748Z,102044.50
2018-12-27T12:20:35.870Z,102044.63
2018-12-27T12:23:02.022Z,102039.84
2018-12-27T12:25:28.028Z,102035.88
2018-12-27T12:27:54.147Z,102028.80
2018-12-27T12:30:20.201Z,102022.69
2018-12-27T12:32:46.199Z,102022.20
2018-12-27T12:35:12.247Z,102017.41
2018-12-27T12:37:38.244Z,102015.70
2018-12-27T12:40:04.308Z,102015.36
2018-12-27T12:42:33.198Z,102013.17
2018-12-27T12:44:58.104Z,102012.81
2018-12-27T12:47:24.143Z,102012.92
2018-12-27T12:49:50.276Z,102016.87
2018-12-27T12:52:16.281Z,102015.56
2018-12-27T12:54:42.282Z,102014.23
2018-12-27T12:57:08.388Z,102018.09
2018-12-27T12:59:34.470Z,102021.95
2018-12-27T13:02:00.622Z,102025.68
2018-12-27T13:04:26.639Z,102028.80
2018-12-27T13:06:52.637Z,102040.78
2018-12-27T13:09:18.683Z,102039.84
2018-12-27T13:11:44.843Z,102038.03
2018-12-27T13:14:11.188Z,102034.91
2018-12-27T13:16:37.210Z,102038.52
2018-12-27T13:19:03.259Z,102038.14
2018-12-27T13:21:29.296Z,102042.93
2018-12-27T13:23:56.294Z,102041.16
2018-12-27T13:26:22.335Z,102042.48
2018-12-27T13:28:48.447Z,102045.12
2018-12-27T13:31:14.506Z,102041.61
2018-12-27T13:33:40.519Z,102044.63
2018-12-27T13:36:06.658Z,102050.01
2018-12-27T13:38:32.656Z,102042.93
2018-12-27T13:40:58.671Z,102042.09
2018-12-27T13:43:24.704Z,102045.31
2018-12-27T13:45:50.713Z,102041.26
2018-12-27T13:48:16.781Z,102046.15
2018-12-27T13:50:42.832Z,102047.02
2018-12-27T13:53:08.835Z,102045.55
2018-12-27T13:55:34.867Z,102045.55
2018-12-27T13:58:00.878Z,102040.02
2018-12-27T14:00:26.926Z,102048.97
2018-12-27T14:02:52.983Z,102052.19
2018-12-27T14:05:19.013Z,102048.46
2018-12-27T14:07:45.034Z,102044.73
2018-12-27T14:10:11.065Z,102040.88
2018-12-27T14:12:37.072Z,102037.89
2018-12-27T14:15:03.100Z,102032.81
2018-12-27T14:17:29.118Z,102035.58
2018-12-27T14:19:55.138Z,102034.70
2018-12-27T14:22:21.223Z,102030.63
2018-12-27T14:24:47.319Z,102031.81
2018-12-27T14:27:13.340Z,102029.80
2018-12-27T14:29:39.383Z,102028.92
2018-12-27T14:32:05.426Z,102035.91
2018-12-27T14:34:31.455Z,102040.70
2018-12-27T14:36:57.545Z,102039.86
2018-12-27T14:39:23.623Z,102044.65
2018-12-27T14:41:50.190Z,102042.98
2018-12-27T14:44:16.237Z,102042.98
2018-12-27T14:46:42.354Z,102039.60
2018-12-27T14:49:08.366Z,102037.16
2018-12-27T14:51:34.636Z,102035.84
2018-12-27T14:54:00.651Z,102041.12
2018-12-27T14:56:26.987Z,102035.59
2018-12-27T14:58:53.008Z,102036.45
2018-12-27T15:01:19.022Z,102037.39
2018-12-27T15:03:45.059Z,102035.59
2018-12-27T15:06:11.158Z,102028.74
2018-12-27T15:08:37.174Z,102037.62
2018-12-27T15:11:03.378Z,102046.01
2018-12-27T15:13:29.410Z,102041.22
2018-12-27T15:15:55.459Z,102035.46
2018-12-27T15:18:21.634Z,102030.67
2018-12-27T15:20:47.665Z,102018.81
2018-12-27T15:23:13.672Z,102016.04
2018-12-27T15:25:39.675Z,102019.90
2018-12-27T15:28:05.943Z,102020.98
2018-12-27T15:30:31.964Z,102022.05
2018-12-27T15:32:57.997Z,102022.41
2018-12-27T15:35:24.115Z,102015.94
2018-12-27T15:37:50.124Z,102008.87
2018-12-27T15:40:16.147Z,102016.87
2018-12-27T15:42:42.475Z,102015.56
2018-12-27T15:45:08.558Z,102023.59
2018-12-27T15:47:34.536Z,102024.08
2018-12-27T15:50:00.565Z,102022.77
2018-12-27T15:52:26.603Z,102021.45
2018-12-27T15:54:52.618Z,102021.45
2018-12-27T15:57:18.656Z,102026.81
2018-12-27T15:59:44.666Z,102028.03
2018-12-27T16:02:10.699Z,102027.07
2018-12-27T16:04:36.786Z,102023.70
2018-12-27T16:07:02.794Z,102024.18
2018-12-27T16:09:28.858Z,102025.84
2018-12-27T16:11:54.971Z,102033.66
2018-12-27T16:14:21.032Z,102031.38
2018-12-27T16:16:47.023Z,102032.70
2018-12-27T16:19:13.063Z,102031.38
2018-12-27T16:21:40.917Z,102026.84
2018-12-27T16:24:07.110Z,102025.42
2018-12-27T16:26:33.162Z,102024.69
2018-12-27T16:28:59.410Z,102027.91
2018-12-27T16:31:25.572Z,102025.40
2018-12-27T16:33:51.804Z,102023.70
2018-12-27T16:36:17.927Z,102022.03
2018-12-27T16:38:43.951Z,102017.23
2018-12-27T16:41:09.966Z,102026.91
2018-12-27T16:43:36.006Z,102027.30
2018-12-27T16:46:02.056Z,102024.66
2018-12-27T16:48:28.058Z,102020.70
2018-12-27T16:50:54.088Z,102015.43
2018-12-27T16:53:20.115Z,102015.30
2018-12-27T16:55:46.207Z,102018.81
2018-12-27T16:58:12.302Z,102016.42
2018-12-27T17:00:38.305Z,102016.87
2018-12-27T17:03:04.373Z,102030.22
2018-12-27T17:05:30.367Z,102031.53
2018-12-27T17:07:56.391Z,102024.11
2018-12-27T17:10:22.406Z,102031.89
2018-12-27T17:12:48.402Z,102031.79
2018-12-27T17:15:14.733Z,102030.73
2018-12-27T17:17:40.854Z,102035.91
2018-12-27T17:20:06.914Z,102040.11
2018-12-27T17:22:32.950Z,102040.85
2018-12-27T17:24:58.989Z,102035.45
2018-12-27T17:27:25.033Z,102038.08
2018-12-27T17:29:51.059Z,102037.25
2018-12-27T17:32:17.068Z,102042.17
2018-12-27T17:34:43.100Z,102045.16
2018-12-27T17:37:09.173Z,102040.63
2018-12-27T17:39:35.190Z,102032.61
2018-12-27T17:42:01.335Z,102022.90
2018-12-27T17:44:27.340Z,102021.93
2018-12-27T17:46:53.351Z,102028.77
2018-12-27T17:49:19.368Z,102023.02
2018-12-27T17:51:45.697Z,102023.27
2018-12-27T17:54:11.871Z,102037.68
2018-12-27T17:56:37.915Z,102046.91
2018-12-27T17:59:03.939Z,102051.84
2018-12-27T18:01:29.951Z,102043.44
2018-12-27T18:03:56.229Z,102044.12
2018-12-27T18:06:22.585Z,102041.86
2018-12-27T18:08:48.594Z,102041.48
2018-12-27T18:11:14.614Z,102038.59
2018-12-27T18:13:40.635Z,102040.39
2018-12-27T18:16:06.755Z,102044.94
2018-12-27T18:18:32.755Z,102039.66
2018-12-27T18:20:58.797Z,102044.58
2018-12-27T18:23:24.875Z,102041.20
2018-12-27T18:25:50.858Z,102043.23
2018-12-27T18:28:16.886Z,102050.66
2018-12-27T18:30:42.913Z,102053.78
2018-12-27T18:33:08.969Z,102045.88
2018-12-27T18:35:34.954Z,102044.65
2018-12-27T18:38:00.977Z,102045.88
2018-12-27T18:40:27.005Z,102051.14
2018-12-27T18:42:53.019Z,102044.17
2018-12-27T18:45:19.076Z,102049.92
2018-12-27T18:47:45.084Z,102049.09
2018-12-27T18:50:11.104Z,102048.61
2018-12-27T18:52:38.130Z,102052.56
2018-12-27T18:55:04.132Z,102042.02
2018-12-27T18:57:30.174Z,102040.70
2018-12-27T18:59:56.194Z,102037.22
2018-12-27T19:02:22.266Z,102050.89
2018-12-27T19:04:48.385Z,102052.79
2018-12-27T19:07:14.483Z,102055.78
2018-12-27T19:09:40.540Z,102059.86
2018-12-27T19:12:06.591Z,102059.73
2018-12-27T19:14:32.704Z,102062.02
2018-12-27T19:16:58.755Z,102054.94
2018-12-27T19:19:24.765Z,102055.78
2018-12-27T19:21:50.799Z,102057.94
2018-12-27T19:24:16.798Z,102048.25
2018-12-27T19:26:42.884Z,102046.68
2018-12-27T19:29:09.056Z,102047.52
2018-12-27T19:31:36.749Z,102047.03
2018-12-27T19:34:02.746Z,102049.67
2018-12-27T19:36:28.782Z,102055.42
2018-12-27T19:38:54.795Z,102059.38
2018-12-27T19:41:20.797Z,102042.59
2018-12-27T19:43:46.821Z,102038.64
2018-12-27T19:46:13.144Z,102044.14
2018-12-27T19:48:39.183Z,102049.03
2018-12-27T19:51:05.275Z,102049.41
2018-12-27T19:53:31.290Z,102049.41
2018-12-27T19:55:57.370Z,102043.75
2018-12-27T19:58:23.382Z,102042.44
2018-12-27T20:00:49.417Z,102038.61
2018-12-27T20:03:15.458Z,102042.82
2018-12-27T20:05:41.540Z,102049.41
2018-12-27T20:08:07.597Z,102051.66
2018-12-27T20:10:33.720Z,102052.05
2018-12-27T20:12:59.735Z,102051.56
2018-12-27T20:15:25.749Z,102061.63
2018-12-27T20:17:51.758Z,102064.75
2018-12-27T20:20:18.167Z,102058.27
2018-12-27T20:22:44.193Z,102058.64
2018-12-27T20:25:10.244Z,102055.17
2018-12-27T20:27:36.256Z,102049.03
2018-12-27T20:30:02.283Z,102039.80
2018-12-27T20:32:28.404Z,102044.72
2018-12-27T20:34:54.446Z,102045.56
2018-12-27T20:37:20.467Z,102051.31
2018-12-27T20:39:46.466Z,102063.27
2018-12-27T20:42:12.522Z,102058.13
2018-12-27T20:44:38.528Z,102057.30
2018-12-27T20:47:04.584Z,102056.81
2018-12-27T20:49:30.695Z,102052.86
2018-12-27T20:51:56.735Z,102052.38
2018-12-27T20:54:22.779Z,102047.00
2018-12-27T20:56:48.796Z,102047.00
2018-12-27T20:59:14.810Z,102041.60
2018-12-27T21:01:40.826Z,102044.72
2018-12-27T21:04:06.839Z,102035.59
2018-12-27T21:06:32.887Z,102034.75
2018-12-27T21:08:58.918Z,102028.16
2018-12-27T21:11:24.918Z,102029.97
2018-12-27T21:13:50.963Z,102028.29
2018-12-27T21:16:16.974Z,102033.08
2018-12-27T21:18:43.042Z,102038.84
2018-12-27T21:21:09.320Z,102034.88
2018-12-27T21:23:35.339Z,102039.67
2018-12-27T21:26:01.373Z,102034.02
2018-12-27T21:28:27.450Z,102029.70
2018-12-27T21:30:53.714Z,102023.11
2018-12-27T21:33:19.740Z,102033.18
2018-12-27T21:35:45.777Z,102029.80
2018-12-27T21:38:11.880Z,102018.07
2018-12-27T21:40:37.927Z,102017.11
2018-12-27T21:43:03.974Z,102025.40
2018-12-27T21:45:30.379Z,102031.51
2018-12-27T21:47:56.415Z,102030.67
2018-12-27T21:50:22.562Z,102039.42
2018-12-27T21:52:48.567Z,102052.12
2018-12-27T21:55:14.580Z,102052.12
2018-12-27T21:57:40.599Z,102051.64
2018-12-27T22:00:06.678Z,102057.97
2018-12-27T22:02:32.683Z,102054.02
2018-12-27T22:04:58.683Z,102049.71
2018-12-27T22:07:24.715Z,102049.23
2018-12-27T22:09:50.758Z,102046.23
2018-12-27T22:12:16.804Z,102055.91
2018-12-27T22:14:42.861Z,102056.40
2018-12-27T22:17:08.885Z,102044.27
2018-12-27T22:19:34.911Z,102044.92
2018-12-27T22:22:00.918Z,102042.73
2018-12-27T22:24:26.961Z,102035.69
2018-12-27T22:26:52.983Z,102036.40
2018-12-27T22:29:19.096Z,102037.62
2018-12-27T22:31:45.104Z,102038.22
2018-12-27T22:34:11.118Z,102034.17
2018-12-27T22:36:37.203Z,102030.13
2018-12-27T22:39:03.285Z,102035.84
2018-12-27T22:41:29.287Z,102028.67
2018-12-27T22:43:55.332Z,102029.98
2018-12-27T22:46:21.377Z,102032.63
2018-12-27T22:48:47.400Z,102036.71
2018-12-27T22:51:13.422Z,102034.91
2018-12-27T22:53:39.430Z,102035.01
2018-12-27T22:56:05.448Z,102043.30
2018-12-27T22:58:31.470Z,102038.97
2018-12-27T23:00:57.479Z,102047.00
2018-12-27T23:03:23.659Z,102043.24
2018-12-27T23:05:49.918Z,102043.37
2018-12-27T23:08:15.994Z,102049.12
2018-12-27T23:10:42.046Z,102052.34
2018-12-27T23:13:08.064Z,102054.14
2018-12-27T23:15:34.092Z,102054.59
2018-12-27T23:18:00.169Z,102059.42
2018-12-27T23:20:26.415Z,102057.62
2018-12-27T23:22:52.826Z,102063.38
2018-12-27T23:25:18.910Z,102058.45
2018-12-27T23:27:44.921Z,102065.05
2018-12-27T23:30:10.940Z,102073.31
2018-12-27T23:32:36.998Z,102072.61
2018-12-27T23:35:03.008Z,102070.41
2018-12-27T23:37:29.015Z,102072.80
2018-12-27T23:39:55.039Z,102080.09
2018-12-27T23:42:21.040Z,102078.38
2018-12-27T23:44:47.146Z,102077.20
2018-12-27T23:47:13.150Z,102076.45
2018-12-27T23:49:39.184Z,102078.35
2018-12-27T23:52:05.213Z,102079.67
2018-12-27T23:54:31.203Z,102075.36
2018-12-27T23:56:57.226Z,102074.97
2018-12-27T23:59:23.253Z,102068.87
